sensor_id;sensor_type;location;lat;lon;timestamp;temperature;humidity
20803;DHT22;10562;-33.856;151.182;2023-04-01T00:01:14;19.60;99.90
20803;DHT22;10562;-33.856;151.182;2023-04-01T00:03:44;19.60;99.90
20803;DHT22;10562;-33.856;151.182;2023-04-01T00:06:19;19.60;99.90
20803;DHT22;10562;-33.856;151.182;2023-04-01T00:08:50;19.60;99.90
20803;DHT22;10562;-33.856;151.182;2023-04-01T00:11:21;19.50;99.90
20803;DHT22;10562;-33.856;151.182;2023-04-01T00:13:52;19.40;99.90
20803;DHT22;10562;-33.856;151.182;2023-04-01T00:16:22;19.30;99.90
20803;DHT22;10562;-33.856;151.182;2023-04-01T00:18:53;19.00;99.90
20803;DHT22;10562;-33.856;151.182;2023-04-01T00:21:26;18.80;99.90
20803;DHT22;10562;-33.856;151.182;2023-04-01T00:23:57;18.70;99.90
20803;DHT22;10562;-33.856;151.182;2023-04-01T00:26:28;18.50;99.90
20803;DHT22;10562;-33.856;151.182;2023-04-01T00:28:59;18.40;99.90
20803;DHT22;10562;-33.856;151.182;2023-04-01T00:31:30;18.40;99.90
20803;DHT22;10562;-33.856;151.182;2023-04-01T00:34:01;18.40;99.90
20803;DHT22;10562;-33.856;151.182;2023-04-01T00:36:34;18.30;99.90
20803;DHT22;10562;-33.856;151.182;2023-04-01T00:39:04;18.40;99.90
20803;DHT22;10562;-33.856;151.182;2023-04-01T00:41:35;18.40;99.90
20803;DHT22;10562;-33.856;151.182;2023-04-01T00:44:20;18.40;99.90
20803;DHT22;10562;-33.856;151.182;2023-04-01T00:46:51;18.40;99.90
20803;DHT22;10562;-33.856;151.182;2023-04-01T00:49:26;18.50;99.90
20803;DHT22;10562;-33.856;151.182;2023-04-01T00:52:02;18.60;99.90
20803;DHT22;10562;-33.856;151.182;2023-04-01T00:54:33;18.60;99.90
20803;DHT22;10562;-33.856;151.182;2023-04-01T00:57:08;18.70;99.90
20803;DHT22;10562;-33.856;151.182;2023-04-01T00:59:42;18.60;99.90
20803;DHT22;10562;-33.856;151.182;2023-04-01T01:02:14;18.50;99.90
20803;DHT22;10562;-33.856;151.182;2023-04-01T01:04:45;18.60;99.90
20803;DHT22;10562;-33.856;151.182;2023-04-01T01:07:24;18.60;99.90
20803;DHT22;10562;-33.856;151.182;2023-04-01T01:10:01;18.50;99.90
20803;DHT22;10562;-33.856;151.182;2023-04-01T01:12:37;18.30;99.90
20803;DHT22;10562;-33.856;151.182;2023-04-01T01:15:15;18.30;99.90
20803;DHT22;10562;-33.856;151.182;2023-04-01T01:17:54;18.20;99.90
20803;DHT22;10562;-33.856;151.182;2023-04-01T01:20:48;18.10;99.90
20803;DHT22;10562;-33.856;151.182;2023-04-01T01:23:49;18.10;99.90
20803;DHT22;10562;-33.856;151.182;2023-04-01T01:27:02;18.10;99.90
20803;DHT22;10562;-33.856;151.182;2023-04-01T01:32:58;18.20;99.90
20803;DHT22;10562;-33.856;151.182;2023-04-01T01:35:35;18.20;99.90
20803;DHT22;10562;-33.856;151.182;2023-04-01T01:38:09;18.40;99.90
20803;DHT22;10562;-33.856;151.182;2023-04-01T01:40:42;18.40;99.90
20803;DHT22;10562;-33.856;151.182;2023-04-01T01:43:18;18.40;99.90
20803;DHT22;10562;-33.856;151.182;2023-04-01T01:45:52;18.30;99.90
20803;DHT22;10562;-33.856;151.182;2023-04-01T01:48:26;18.30;99.90
20803;DHT22;10562;-33.856;151.182;2023-04-01T01:51:01;18.30;99.90
20803;DHT22;10562;-33.856;151.182;2023-04-01T01:53:31;18.40;99.90
20803;DHT22;10562;-33.856;151.182;2023-04-01T01:56:02;18.30;99.90
20803;DHT22;10562;-33.856;151.182;2023-04-01T01:58:38;18.30;99.90
20803;DHT22;10562;-33.856;151.182;2023-04-01T02:01:13;18.30;99.90
20803;DHT22;10562;-33.856;151.182;2023-04-01T02:03:45;18.30;99.90
20803;DHT22;10562;-33.856;151.182;2023-04-01T02:06:21;18.20;99.90
20803;DHT22;10562;-33.856;151.182;2023-04-01T02:08:53;18.30;99.90
20803;DHT22;10562;-33.856;151.182;2023-04-01T02:11:27;18.30;99.90
20803;DHT22;10562;-33.856;151.182;2023-04-01T02:14:03;18.30;99.90
20803;DHT22;10562;-33.856;151.182;2023-04-01T02:16:38;18.40;99.90
20803;DHT22;10562;-33.856;151.182;2023-04-01T02:19:12;18.40;99.90
20803;DHT22;10562;-33.856;151.182;2023-04-01T02:21:46;18.50;99.90
20803;DHT22;10562;-33.856;151.182;2023-04-01T02:24:17;18.60;99.90
20803;DHT22;10562;-33.856;151.182;2023-04-01T02:26:51;18.70;99.90
20803;DHT22;10562;-33.856;151.182;2023-04-01T02:29:23;18.80;99.90
20803;DHT22;10562;-33.856;151.182;2023-04-01T02:31:54;18.60;99.90
20803;DHT22;10562;-33.856;151.182;2023-04-01T02:34:26;18.50;99.90
20803;DHT22;10562;-33.856;151.182;2023-04-01T02:36:59;18.30;99.90
20803;DHT22;10562;-33.856;151.182;2023-04-01T02:39:30;18.10;99.90
20803;DHT22;10562;-33.856;151.182;2023-04-01T02:42:01;18.00;99.90
20803;DHT22;10562;-33.856;151.182;2023-04-01T02:44:32;17.90;99.90
20803;DHT22;10562;-33.856;151.182;2023-04-01T02:47:02;17.90;99.90
20803;DHT22;10562;-33.856;151.182;2023-04-01T02:49:33;17.90;99.90
20803;DHT22;10562;-33.856;151.182;2023-04-01T02:52:06;17.80;99.90
20803;DHT22;10562;-33.856;151.182;2023-04-01T02:54:38;17.90;99.90
20803;DHT22;10562;-33.856;151.182;2023-04-01T02:57:09;18.00;99.90
20803;DHT22;10562;-33.856;151.182;2023-04-01T02:59:39;18.10;99.90
20803;DHT22;10562;-33.856;151.182;2023-04-01T03:02:10;18.10;99.90
20803;DHT22;10562;-33.856;151.182;2023-04-01T03:04:41;18.10;99.90
20803;DHT22;10562;-33.856;151.182;2023-04-01T03:07:14;18.20;99.90
20803;DHT22;10562;-33.856;151.182;2023-04-01T03:09:45;18.30;99.90
20803;DHT22;10562;-33.856;151.182;2023-04-01T03:12:15;18.20;99.90
20803;DHT22;10562;-33.856;151.182;2023-04-01T03:14:46;18.20;99.90
20803;DHT22;10562;-33.856;151.182;2023-04-01T03:17:17;18.20;99.90
20803;DHT22;10562;-33.856;151.182;2023-04-01T03:19:48;18.20;99.90
20803;DHT22;10562;-33.856;151.182;2023-04-01T03:22:20;18.10;99.90
20803;DHT22;10562;-33.856;151.182;2023-04-01T03:24:51;18.10;99.90
20803;DHT22;10562;-33.856;151.182;2023-04-01T03:27:22;18.10;99.90
20803;DHT22;10562;-33.856;151.182;2023-04-01T03:29:53;18.10;99.90
20803;DHT22;10562;-33.856;151.182;2023-04-01T03:32:24;18.00;99.90
20803;DHT22;10562;-33.856;151.182;2023-04-01T03:34:55;18.00;99.90
20803;DHT22;10562;-33.856;151.182;2023-04-01T03:37:27;17.90;99.90
20803;DHT22;10562;-33.856;151.182;2023-04-01T03:39:58;17.80;99.90
20803;DHT22;10562;-33.856;151.182;2023-04-01T03:42:30;17.70;99.90
20803;DHT22;10562;-33.856;151.182;2023-04-01T03:45:01;17.70;99.90
20803;DHT22;10562;-33.856;151.182;2023-04-01T03:47:32;17.70;99.90
20803;DHT22;10562;-33.856;151.182;2023-04-01T03:50:03;17.70;99.90
20803;DHT22;10562;-33.856;151.182;2023-04-01T03:52:36;17.80;99.90
20803;DHT22;10562;-33.856;151.182;2023-04-01T03:55:07;17.80;99.90
20803;DHT22;10562;-33.856;151.182;2023-04-01T03:57:38;17.80;99.90
20803;DHT22;10562;-33.856;151.182;2023-04-01T04:00:10;17.90;99.90
20803;DHT22;10562;-33.856;151.182;2023-04-01T04:02:41;17.90;99.90
20803;DHT22;10562;-33.856;151.182;2023-04-01T04:05:12;17.80;99.90
20803;DHT22;10562;-33.856;151.182;2023-04-01T04:07:44;17.80;99.90
20803;DHT22;10562;-33.856;151.182;2023-04-01T04:10:15;17.80;99.90
20803;DHT22;10562;-33.856;151.182;2023-04-01T04:12:46;17.90;99.90
20803;DHT22;10562;-33.856;151.182;2023-04-01T04:15:17;18.00;99.90
20803;DHT22;10562;-33.856;151.182;2023-04-01T04:17:48;18.10;99.90
20803;DHT22;10562;-33.856;151.182;2023-04-01T04:20:19;18.30;99.90
20803;DHT22;10562;-33.856;151.182;2023-04-01T04:22:51;18.30;99.90
20803;DHT22;10562;-33.856;151.182;2023-04-01T04:25:22;18.50;99.90
20803;DHT22;10562;-33.856;151.182;2023-04-01T04:27:53;18.40;99.90
20803;DHT22;10562;-33.856;151.182;2023-04-01T04:30:24;18.50;99.90
20803;DHT22;10562;-33.856;151.182;2023-04-01T04:32:55;18.50;99.90
20803;DHT22;10562;-33.856;151.182;2023-04-01T04:35:26;18.40;99.90
20803;DHT22;10562;-33.856;151.182;2023-04-01T04:37:59;18.40;99.90
20803;DHT22;10562;-33.856;151.182;2023-04-01T04:40:29;18.50;99.90
20803;DHT22;10562;-33.856;151.182;2023-04-01T04:43:00;18.60;99.90
20803;DHT22;10562;-33.856;151.182;2023-04-01T04:45:31;18.60;99.90
20803;DHT22;10562;-33.856;151.182;2023-04-01T04:48:02;18.60;99.90
20803;DHT22;10562;-33.856;151.182;2023-04-01T04:50:33;18.60;99.90
20803;DHT22;10562;-33.856;151.182;2023-04-01T04:53:08;18.50;99.90
20803;DHT22;10562;-33.856;151.182;2023-04-01T04:55:43;18.40;99.90
20803;DHT22;10562;-33.856;151.182;2023-04-01T04:58:14;18.40;99.90
20803;DHT22;10562;-33.856;151.182;2023-04-01T05:00:46;18.50;99.90
20803;DHT22;10562;-33.856;151.182;2023-04-01T05:03:17;18.60;99.90
20803;DHT22;10562;-33.856;151.182;2023-04-01T05:05:51;18.50;99.90
20803;DHT22;10562;-33.856;151.182;2023-04-01T05:08:24;18.50;99.90
20803;DHT22;10562;-33.856;151.182;2023-04-01T05:10:55;18.50;99.90
20803;DHT22;10562;-33.856;151.182;2023-04-01T05:13:26;18.60;99.90
20803;DHT22;10562;-33.856;151.182;2023-04-01T05:15:57;18.60;99.90
20803;DHT22;10562;-33.856;151.182;2023-04-01T05:18:27;18.60;99.90
20803;DHT22;10562;-33.856;151.182;2023-04-01T05:20:58;18.60;99.90
20803;DHT22;10562;-33.856;151.182;2023-04-01T05:23:32;18.70;99.90
20803;DHT22;10562;-33.856;151.182;2023-04-01T05:26:04;18.80;99.90
20803;DHT22;10562;-33.856;151.182;2023-04-01T05:28:36;18.90;99.90
20803;DHT22;10562;-33.856;151.182;2023-04-01T05:31:07;19.00;99.90
20803;DHT22;10562;-33.856;151.182;2023-04-01T05:33:38;19.00;99.90
20803;DHT22;10562;-33.856;151.182;2023-04-01T05:36:11;19.10;99.90
20803;DHT22;10562;-33.856;151.182;2023-04-01T05:38:44;19.20;99.90
20803;DHT22;10562;-33.856;151.182;2023-04-01T05:41:15;19.70;99.90
20803;DHT22;10562;-33.856;151.182;2023-04-01T05:43:46;20.00;99.90
20803;DHT22;10562;-33.856;151.182;2023-04-01T05:46:17;20.20;99.90
20803;DHT22;10562;-33.856;151.182;2023-04-01T05:48:48;20.60;99.90
20803;DHT22;10562;-33.856;151.182;2023-04-01T05:51:19;20.80;99.90
20803;DHT22;10562;-33.856;151.182;2023-04-01T05:53:51;20.60;99.90
20803;DHT22;10562;-33.856;151.182;2023-04-01T05:56:22;20.50;99.90
20803;DHT22;10562;-33.856;151.182;2023-04-01T05:58:54;20.50;99.90
20803;DHT22;10562;-33.856;151.182;2023-04-01T06:01:25;20.40;99.90
20803;DHT22;10562;-33.856;151.182;2023-04-01T06:03:55;20.40;99.90
20803;DHT22;10562;-33.856;151.182;2023-04-01T06:06:27;20.20;99.90
20803;DHT22;10562;-33.856;151.182;2023-04-01T06:09:14;20.10;99.90
20803;DHT22;10562;-33.856;151.182;2023-04-01T06:11:57;20.20;99.90
20803;DHT22;10562;-33.856;151.182;2023-04-01T06:14:38;20.00;99.90
20803;DHT22;10562;-33.856;151.182;2023-04-01T06:17:21;19.80;99.90
20803;DHT22;10562;-33.856;151.182;2023-04-01T06:20:03;19.80;99.90
20803;DHT22;10562;-33.856;151.182;2023-04-01T06:25:39;19.40;99.90
20803;DHT22;10562;-33.856;151.182;2023-04-01T06:31:25;19.20;99.90
20803;DHT22;10562;-33.856;151.182;2023-04-01T06:37:33;19.10;99.90
20803;DHT22;10562;-33.856;151.182;2023-04-01T06:40:27;19.10;99.90
20803;DHT22;10562;-33.856;151.182;2023-04-01T06:43:15;19.10;99.90
20803;DHT22;10562;-33.856;151.182;2023-04-01T06:45:53;19.10;99.90
20803;DHT22;10562;-33.856;151.182;2023-04-01T06:48:47;19.30;99.90
20803;DHT22;10562;-33.856;151.182;2023-04-01T06:51:26;19.30;99.90
20803;DHT22;10562;-33.856;151.182;2023-04-01T06:54:04;19.30;99.90
20803;DHT22;10562;-33.856;151.182;2023-04-01T06:56:38;19.30;99.90
20803;DHT22;10562;-33.856;151.182;2023-04-01T06:59:15;19.30;99.90
20803;DHT22;10562;-33.856;151.182;2023-04-01T07:01:49;19.30;99.90
20803;DHT22;10562;-33.856;151.182;2023-04-01T07:04:25;19.30;99.90
20803;DHT22;10562;-33.856;151.182;2023-04-01T07:06:58;19.20;99.90
20803;DHT22;10562;-33.856;151.182;2023-04-01T07:09:33;19.30;99.90
20803;DHT22;10562;-33.856;151.182;2023-04-01T07:12:12;19.20;99.90
20803;DHT22;10562;-33.856;151.182;2023-04-01T07:14:50;19.10;99.90
20803;DHT22;10562;-33.856;151.182;2023-04-01T07:17:25;19.00;99.90
20803;DHT22;10562;-33.856;151.182;2023-04-01T07:20:02;19.00;99.90
20803;DHT22;10562;-33.856;151.182;2023-04-01T07:22:35;19.00;99.90
20803;DHT22;10562;-33.856;151.182;2023-04-01T07:25:13;19.00;99.90
20803;DHT22;10562;-33.856;151.182;2023-04-01T07:27:45;18.90;99.90
20803;DHT22;10562;-33.856;151.182;2023-04-01T07:30:18;18.90;99.90
20803;DHT22;10562;-33.856;151.182;2023-04-01T07:32:50;18.90;99.90
20803;DHT22;10562;-33.856;151.182;2023-04-01T07:35:28;18.90;99.90
20803;DHT22;10562;-33.856;151.182;2023-04-01T07:38:12;18.80;99.90
20803;DHT22;10562;-33.856;151.182;2023-04-01T07:40:51;18.70;99.90
20803;DHT22;10562;-33.856;151.182;2023-04-01T07:43:41;18.70;99.90
20803;DHT22;10562;-33.856;151.182;2023-04-01T07:46:23;18.60;99.90
20803;DHT22;10562;-33.856;151.182;2023-04-01T07:49:02;18.70;99.90
20803;DHT22;10562;-33.856;151.182;2023-04-01T07:51:40;18.70;99.90
20803;DHT22;10562;-33.856;151.182;2023-04-01T07:54:17;18.70;99.90
20803;DHT22;10562;-33.856;151.182;2023-04-01T07:56:54;18.70;99.90
20803;DHT22;10562;-33.856;151.182;2023-04-01T07:59:29;18.70;99.90
20803;DHT22;10562;-33.856;151.182;2023-04-01T08:02:15;18.70;99.90
20803;DHT22;10562;-33.856;151.182;2023-04-01T08:04:58;18.70;99.90
20803;DHT22;10562;-33.856;151.182;2023-04-01T08:07:36;18.60;99.90
20803;DHT22;10562;-33.856;151.182;2023-04-01T08:10:16;18.60;99.90
20803;DHT22;10562;-33.856;151.182;2023-04-01T08:12:55;18.50;99.90
20803;DHT22;10562;-33.856;151.182;2023-04-01T08:15:31;18.50;99.90
20803;DHT22;10562;-33.856;151.182;2023-04-01T08:18:15;18.50;99.90
20803;DHT22;10562;-33.856;151.182;2023-04-01T08:20:50;18.40;99.90
20803;DHT22;10562;-33.856;151.182;2023-04-01T08:23:24;18.50;99.90
20803;DHT22;10562;-33.856;151.182;2023-04-01T08:26:00;18.50;99.90
20803;DHT22;10562;-33.856;151.182;2023-04-01T08:28:37;18.40;99.90
20803;DHT22;10562;-33.856;151.182;2023-04-01T08:31:14;18.50;99.90
20803;DHT22;10562;-33.856;151.182;2023-04-01T08:33:50;18.50;99.90
20803;DHT22;10562;-33.856;151.182;2023-04-01T08:36:28;18.40;99.90
20803;DHT22;10562;-33.856;151.182;2023-04-01T08:39:04;18.40;99.90
20803;DHT22;10562;-33.856;151.182;2023-04-01T08:42:23;18.40;99.90
20803;DHT22;10562;-33.856;151.182;2023-04-01T08:45:16;18.40;99.90
20803;DHT22;10562;-33.856;151.182;2023-04-01T08:48:00;18.30;99.90
20803;DHT22;10562;-33.856;151.182;2023-04-01T08:50:53;18.30;99.90
20803;DHT22;10562;-33.856;151.182;2023-04-01T08:53:39;18.30;99.90
20803;DHT22;10562;-33.856;151.182;2023-04-01T08:56:20;18.30;99.90
20803;DHT22;10562;-33.856;151.182;2023-04-01T08:59:09;18.30;99.90
20803;DHT22;10562;-33.856;151.182;2023-04-01T09:01:57;18.30;99.90
20803;DHT22;10562;-33.856;151.182;2023-04-01T09:04:42;18.30;99.90
20803;DHT22;10562;-33.856;151.182;2023-04-01T09:07:32;18.30;99.90
20803;DHT22;10562;-33.856;151.182;2023-04-01T09:10:27;18.30;99.90
20803;DHT22;10562;-33.856;151.182;2023-04-01T09:13:25;18.20;99.90
20803;DHT22;10562;-33.856;151.182;2023-04-01T09:16:22;18.10;99.90
20803;DHT22;10562;-33.856;151.182;2023-04-01T09:19:15;18.00;99.90
20803;DHT22;10562;-33.856;151.182;2023-04-01T09:25:24;17.80;99.90
20803;DHT22;10562;-33.856;151.182;2023-04-01T09:28:00;17.70;99.90
20803;DHT22;10562;-33.856;151.182;2023-04-01T09:30:48;17.70;99.90
20803;DHT22;10562;-33.856;151.182;2023-04-01T09:36:44;17.60;99.90
20803;DHT22;10562;-33.856;151.182;2023-04-01T09:39:36;17.50;99.90
20803;DHT22;10562;-33.856;151.182;2023-04-01T09:42:32;17.50;99.90
20803;DHT22;10562;-33.856;151.182;2023-04-01T09:45:09;17.40;99.90
20803;DHT22;10562;-33.856;151.182;2023-04-01T09:47:56;17.40;99.90
20803;DHT22;10562;-33.856;151.182;2023-04-01T09:50:42;17.30;99.90
20803;DHT22;10562;-33.856;151.182;2023-04-01T09:53:27;17.30;99.90
20803;DHT22;10562;-33.856;151.182;2023-04-01T09:56:47;17.40;99.90
20803;DHT22;10562;-33.856;151.182;2023-04-01T10:02:48;17.50;99.90
20803;DHT22;10562;-33.856;151.182;2023-04-01T10:05:40;17.50;99.90
20803;DHT22;10562;-33.856;151.182;2023-04-01T10:14:35;17.50;99.90
20803;DHT22;10562;-33.856;151.182;2023-04-01T10:21:13;17.50;99.90
20803;DHT22;10562;-33.856;151.182;2023-04-01T10:24:08;17.30;99.90
20803;DHT22;10562;-33.856;151.182;2023-04-01T10:33:35;17.10;99.90
20803;DHT22;10562;-33.856;151.182;2023-04-01T10:36:31;17.00;99.90
20803;DHT22;10562;-33.856;151.182;2023-04-01T10:42:51;16.80;99.90
20803;DHT22;10562;-33.856;151.182;2023-04-01T10:46:01;16.70;99.90
20803;DHT22;10562;-33.856;151.182;2023-04-01T10:55:03;16.50;99.90
20803;DHT22;10562;-33.856;151.182;2023-04-01T11:01:22;16.60;99.90
20803;DHT22;10562;-33.856;151.182;2023-04-01T11:07:41;16.40;99.90
20803;DHT22;10562;-33.856;151.182;2023-04-01T11:10:57;16.40;99.90
20803;DHT22;10562;-33.856;151.182;2023-04-01T11:26:09;16.50;99.90
20803;DHT22;10562;-33.856;151.182;2023-04-01T11:32:00;16.70;99.90
20803;DHT22;10562;-33.856;151.182;2023-04-01T11:34:54;16.70;99.90
20803;DHT22;10562;-33.856;151.182;2023-04-01T11:37:38;16.70;99.90
20803;DHT22;10562;-33.856;151.182;2023-04-01T11:40:24;16.70;99.90
20803;DHT22;10562;-33.856;151.182;2023-04-01T11:43:04;16.60;99.90
20803;DHT22;10562;-33.856;151.182;2023-04-01T11:45:41;16.60;99.90
20803;DHT22;10562;-33.856;151.182;2023-04-01T11:48:53;16.60;99.90
20803;DHT22;10562;-33.856;151.182;2023-04-01T11:54:30;16.50;99.90
20803;DHT22;10562;-33.856;151.182;2023-04-01T11:57:19;16.50;99.90
20803;DHT22;10562;-33.856;151.182;2023-04-01T11:59:59;16.60;99.90
20803;DHT22;10562;-33.856;151.182;2023-04-01T12:02:47;16.50;99.90
20803;DHT22;10562;-33.856;151.182;2023-04-01T12:05:29;16.40;99.90
20803;DHT22;10562;-33.856;151.182;2023-04-01T12:08:11;16.30;99.90
20803;DHT22;10562;-33.856;151.182;2023-04-01T12:10:48;16.30;99.90
20803;DHT22;10562;-33.856;151.182;2023-04-01T12:13:31;16.40;99.90
20803;DHT22;10562;-33.856;151.182;2023-04-01T12:19:13;16.50;99.90
20803;DHT22;10562;-33.856;151.182;2023-04-01T12:21:50;16.50;99.90
20803;DHT22;10562;-33.856;151.182;2023-04-01T12:24:44;16.60;99.90
20803;DHT22;10562;-33.856;151.182;2023-04-01T12:27:32;16.70;99.90
20803;DHT22;10562;-33.856;151.182;2023-04-01T12:30:37;16.70;99.90
20803;DHT22;10562;-33.856;151.182;2023-04-01T12:33:29;16.60;99.90
20803;DHT22;10562;-33.856;151.182;2023-04-01T12:36:20;16.60;99.90
20803;DHT22;10562;-33.856;151.182;2023-04-01T12:39:26;16.50;99.90
20803;DHT22;10562;-33.856;151.182;2023-04-01T12:42:07;16.40;99.90
20803;DHT22;10562;-33.856;151.182;2023-04-01T12:44:58;16.20;99.90
20803;DHT22;10562;-33.856;151.182;2023-04-01T12:54:24;16.00;99.90
20803;DHT22;10562;-33.856;151.182;2023-04-01T12:57:13;16.00;99.90
20803;DHT22;10562;-33.856;151.182;2023-04-01T12:59:58;16.10;99.90
20803;DHT22;10562;-33.856;151.182;2023-04-01T13:02:42;16.20;99.90
20803;DHT22;10562;-33.856;151.182;2023-04-01T13:05:31;16.30;99.90
20803;DHT22;10562;-33.856;151.182;2023-04-01T13:08:26;16.20;99.90
20803;DHT22;10562;-33.856;151.182;2023-04-01T13:11:14;16.30;99.90
20803;DHT22;10562;-33.856;151.182;2023-04-01T13:14:12;16.30;99.90
20803;DHT22;10562;-33.856;151.182;2023-04-01T13:16:48;16.40;99.90
20803;DHT22;10562;-33.856;151.182;2023-04-01T13:19:27;16.40;99.90
20803;DHT22;10562;-33.856;151.182;2023-04-01T13:22:06;16.50;99.90
20803;DHT22;10562;-33.856;151.182;2023-04-01T13:24:44;16.50;99.90
20803;DHT22;10562;-33.856;151.182;2023-04-01T13:27:19;16.50;99.90
20803;DHT22;10562;-33.856;151.182;2023-04-01T13:30:07;16.50;99.90
20803;DHT22;10562;-33.856;151.182;2023-04-01T13:32:46;16.60;99.90
20803;DHT22;10562;-33.856;151.182;2023-04-01T13:35:27;16.50;99.90
20803;DHT22;10562;-33.856;151.182;2023-04-01T13:38:12;16.50;99.90
20803;DHT22;10562;-33.856;151.182;2023-04-01T13:40:54;16.40;99.90
20803;DHT22;10562;-33.856;151.182;2023-04-01T13:43:34;16.30;99.90
20803;DHT22;10562;-33.856;151.182;2023-04-01T13:46:26;16.20;99.90
20803;DHT22;10562;-33.856;151.182;2023-04-01T13:49:15;16.10;99.90
20803;DHT22;10562;-33.856;151.182;2023-04-01T13:58:00;16.00;99.90
20803;DHT22;10562;-33.856;151.182;2023-04-01T14:00:46;16.10;99.90
20803;DHT22;10562;-33.856;151.182;2023-04-01T14:06:37;16.10;99.90
20803;DHT22;10562;-33.856;151.182;2023-04-01T14:09:26;16.20;99.90
20803;DHT22;10562;-33.856;151.182;2023-04-01T14:12:05;16.30;99.90
20803;DHT22;10562;-33.856;151.182;2023-04-01T14:14:52;16.40;99.90
20803;DHT22;10562;-33.856;151.182;2023-04-01T14:17:36;16.40;99.90
20803;DHT22;10562;-33.856;151.182;2023-04-01T14:20:40;16.40;99.90
20803;DHT22;10562;-33.856;151.182;2023-04-01T14:23:37;16.40;99.90
20803;DHT22;10562;-33.856;151.182;2023-04-01T14:26:26;16.50;99.90
20803;DHT22;10562;-33.856;151.182;2023-04-01T14:29:08;16.50;99.90
20803;DHT22;10562;-33.856;151.182;2023-04-01T14:31:54;16.40;99.90
20803;DHT22;10562;-33.856;151.182;2023-04-01T14:34:36;16.40;99.90
20803;DHT22;10562;-33.856;151.182;2023-04-01T14:40:28;16.30;99.90
20803;DHT22;10562;-33.856;151.182;2023-04-01T14:43:30;16.20;99.90
20803;DHT22;10562;-33.856;151.182;2023-04-01T14:48:59;16.00;99.90
20803;DHT22;10562;-33.856;151.182;2023-04-01T14:51:33;15.90;99.90
20803;DHT22;10562;-33.856;151.182;2023-04-01T14:54:14;15.80;99.90
20803;DHT22;10562;-33.856;151.182;2023-04-01T14:56:51;15.70;99.90
20803;DHT22;10562;-33.856;151.182;2023-04-01T14:59:31;15.60;99.90
20803;DHT22;10562;-33.856;151.182;2023-04-01T15:02:08;15.60;99.90
20803;DHT22;10562;-33.856;151.182;2023-04-01T15:05:02;15.50;99.90
20803;DHT22;10562;-33.856;151.182;2023-04-01T15:07:58;15.50;99.90
20803;DHT22;10562;-33.856;151.182;2023-04-01T15:10:47;15.50;99.90
20803;DHT22;10562;-33.856;151.182;2023-04-01T15:13:29;15.50;99.90
20803;DHT22;10562;-33.856;151.182;2023-04-01T15:16:08;15.60;99.90
20803;DHT22;10562;-33.856;151.182;2023-04-01T15:18:48;15.60;99.90
20803;DHT22;10562;-33.856;151.182;2023-04-01T15:21:36;15.60;99.90
20803;DHT22;10562;-33.856;151.182;2023-04-01T15:24:20;15.70;99.90
20803;DHT22;10562;-33.856;151.182;2023-04-01T15:30:13;15.90;99.90
20803;DHT22;10562;-33.856;151.182;2023-04-01T15:32:54;16.00;99.90
20803;DHT22;10562;-33.856;151.182;2023-04-01T15:35:36;16.10;99.90
20803;DHT22;10562;-33.856;151.182;2023-04-01T15:38:17;16.10;99.90
20803;DHT22;10562;-33.856;151.182;2023-04-01T15:40:56;16.20;99.90
20803;DHT22;10562;-33.856;151.182;2023-04-01T15:43:40;16.20;99.90
20803;DHT22;10562;-33.856;151.182;2023-04-01T15:46:42;16.30;99.90
20803;DHT22;10562;-33.856;151.182;2023-04-01T15:49:24;16.30;99.90
20803;DHT22;10562;-33.856;151.182;2023-04-01T15:52:08;16.40;99.90
20803;DHT22;10562;-33.856;151.182;2023-04-01T15:55:18;16.40;99.90
20803;DHT22;10562;-33.856;151.182;2023-04-01T15:58:02;16.40;99.90
20803;DHT22;10562;-33.856;151.182;2023-04-01T16:00:46;16.50;99.90
20803;DHT22;10562;-33.856;151.182;2023-04-01T16:03:34;16.40;99.90
20803;DHT22;10562;-33.856;151.182;2023-04-01T16:06:30;16.40;99.90
20803;DHT22;10562;-33.856;151.182;2023-04-01T16:09:23;16.50;99.90
20803;DHT22;10562;-33.856;151.182;2023-04-01T16:12:03;16.40;99.90
20803;DHT22;10562;-33.856;151.182;2023-04-01T16:14:40;16.40;99.90
20803;DHT22;10562;-33.856;151.182;2023-04-01T16:17:48;16.50;99.90
20803;DHT22;10562;-33.856;151.182;2023-04-01T16:20:22;16.50;99.90
20803;DHT22;10562;-33.856;151.182;2023-04-01T16:22:58;16.50;99.90
20803;DHT22;10562;-33.856;151.182;2023-04-01T16:25:39;16.40;99.90
20803;DHT22;10562;-33.856;151.182;2023-04-01T16:28:22;16.40;99.90
20803;DHT22;10562;-33.856;151.182;2023-04-01T16:30:59;16.40;99.90
20803;DHT22;10562;-33.856;151.182;2023-04-01T16:33:39;16.40;99.90
20803;DHT22;10562;-33.856;151.182;2023-04-01T16:36:20;16.30;99.90
20803;DHT22;10562;-33.856;151.182;2023-04-01T16:39:06;16.30;99.90
20803;DHT22;10562;-33.856;151.182;2023-04-01T16:41:46;16.20;99.90
20803;DHT22;10562;-33.856;151.182;2023-04-01T16:44:21;16.00;99.90
20803;DHT22;10562;-33.856;151.182;2023-04-01T16:46:53;15.90;99.90
20803;DHT22;10562;-33.856;151.182;2023-04-01T16:49:37;15.90;99.90
20803;DHT22;10562;-33.856;151.182;2023-04-01T16:52:29;15.80;99.90
20803;DHT22;10562;-33.856;151.182;2023-04-01T16:55:04;15.90;99.90
20803;DHT22;10562;-33.856;151.182;2023-04-01T16:57:47;15.80;99.90
20803;DHT22;10562;-33.856;151.182;2023-04-01T17:00:26;15.80;99.90
20803;DHT22;10562;-33.856;151.182;2023-04-01T17:03:04;15.90;99.90
20803;DHT22;10562;-33.856;151.182;2023-04-01T17:08:55;16.00;99.90
20803;DHT22;10562;-33.856;151.182;2023-04-01T17:11:36;16.10;99.90
20803;DHT22;10562;-33.856;151.182;2023-04-01T17:14:17;16.10;99.90
20803;DHT22;10562;-33.856;151.182;2023-04-01T17:17:14;16.10;99.90
20803;DHT22;10562;-33.856;151.182;2023-04-01T17:20:01;16.10;99.90
20803;DHT22;10562;-33.856;151.182;2023-04-01T17:22:42;16.00;99.90
20803;DHT22;10562;-33.856;151.182;2023-04-01T17:25:35;16.10;99.90
20803;DHT22;10562;-33.856;151.182;2023-04-01T17:28:21;16.10;99.90
20803;DHT22;10562;-33.856;151.182;2023-04-01T17:31:00;16.10;99.90
20803;DHT22;10562;-33.856;151.182;2023-04-01T17:33:47;16.10;99.90
20803;DHT22;10562;-33.856;151.182;2023-04-01T17:36:35;16.10;99.90
20803;DHT22;10562;-33.856;151.182;2023-04-01T17:39:36;16.10;99.90
20803;DHT22;10562;-33.856;151.182;2023-04-01T17:42:14;16.20;99.90
20803;DHT22;10562;-33.856;151.182;2023-04-01T17:44:53;16.30;99.90
20803;DHT22;10562;-33.856;151.182;2023-04-01T17:47:38;16.30;99.90
20803;DHT22;10562;-33.856;151.182;2023-04-01T17:50:22;16.30;99.90